createdAt,value
2023-01-31T00:01:40.218Z,99183.56
2023-01-31T00:04:12.758Z,99177.69
2023-01-31T00:06:45.107Z,99182.09
2023-01-31T00:09:12.980Z,99170.84
2023-01-31T00:11:42.275Z,99170.31
2023-01-31T00:14:12.741Z,99181.25
2023-01-31T00:16:41.645Z,99164.69
2023-01-31T00:19:08.166Z,99165.75
2023-01-31T00:21:34.946Z,99169.56
2023-01-31T00:24:02.116Z,99162.28
2023-01-31T00:26:34.920Z,99177.25
2023-01-31T00:29:03.694Z,99176.59
2023-01-31T00:31:32.900Z,99178.47
2023-01-31T00:33:59.846Z,99172.38
2023-01-31T00:36:29.063Z,99187.06
2023-01-31T00:38:58.156Z,99184.94
2023-01-31T00:41:26.508Z,99181.47
2023-01-31T00:43:53.300Z,99178.72
2023-01-31T00:46:23.926Z,99179.69
2023-01-31T00:48:50.589Z,99180.50
2023-01-31T00:51:18.075Z,99168.81
2023-01-31T00:53:44.922Z,99183.97
2023-01-31T00:56:14.807Z,99181.16
2023-01-31T00:58:41.676Z,99157.31
2023-01-31T01:01:21.226Z,99176.75
2023-01-31T01:03:48.476Z,99176.22
2023-01-31T01:06:15.208Z,99178.75
2023-01-31T01:08:43.412Z,99175.13
2023-01-31T01:11:15.948Z,99179.69
2023-01-31T01:13:45.706Z,99174.34
2023-01-31T01:16:20.864Z,99177.53
2023-01-31T01:18:49.205Z,99166.88
2023-01-31T01:21:24.585Z,99165.47
2023-01-31T01:23:51.909Z,99162.56
2023-01-31T01:26:21.158Z,99159.56
2023-01-31T01:28:48.770Z,99163.31
2023-01-31T01:31:16.887Z,99172.75
2023-01-31T01:33:45.032Z,99172.00
2023-01-31T01:36:15.332Z,99178.38
2023-01-31T01:38:46.415Z,99185.09
2023-01-31T01:41:14.977Z,99181.00
2023-01-31T01:43:41.413Z,99190.63
2023-01-31T01:46:10.587Z,99181.94
2023-01-31T01:48:37.749Z,99176.56
2023-01-31T01:51:06.694Z,99173.31
2023-01-31T01:53:36.956Z,99175.66
2023-01-31T01:56:11.256Z,99177.44
2023-01-31T01:58:46.828Z,99182.41
2023-01-31T02:01:16.597Z,99185.69
2023-01-31T02:03:48.257Z,99171.66
2023-01-31T02:06:17.948Z,99173.69
2023-01-31T02:08:46.678Z,99168.06
2023-01-31T02:11:19.002Z,99175.38
2023-01-31T02:13:50.979Z,99156.66
2023-01-31T02:16:17.693Z,99142.72
2023-01-31T02:18:46.034Z,99161.72
2023-01-31T02:21:18.295Z,99163.41
2023-01-31T02:24:06.746Z,99165.09
2023-01-31T02:27:04.805Z,99161.72
2023-01-31T02:30:06.780Z,99160.06
2023-01-31T02:33:08.749Z,99172.31
2023-01-31T02:36:04.323Z,99177.63
2023-01-31T02:38:49.428Z,99168.94
2023-01-31T02:41:51.160Z,99168.72
2023-01-31T02:44:59.288Z,99177.34
2023-01-31T02:47:35.475Z,99186.59
2023-01-31T02:50:19.907Z,99186.78
2023-01-31T02:52:57.051Z,99187.91
2023-01-31T02:56:20.694Z,99180.06
2023-01-31T02:59:02.347Z,99194.47
2023-01-31T03:01:33.080Z,99187.38
2023-01-31T03:04:07.523Z,99181.56
2023-01-31T03:06:36.903Z,99188.56
2023-01-31T03:09:09.915Z,99179.59
2023-01-31T03:12:08.441Z,99182.13
2023-01-31T03:14:53.739Z,99189.38
2023-01-31T03:18:05.452Z,99192.38
2023-01-31T03:20:53.318Z,99185.66
2023-01-31T03:23:22.626Z,99193.25
2023-01-31T03:25:49.866Z,99180.03
2023-01-31T03:28:23.399Z,99187.34
2023-01-31T03:30:54.374Z,99186.22
2023-01-31T03:33:29.929Z,99175.38
2023-01-31T03:36:06.943Z,99190.88
2023-01-31T03:38:37.011Z,99176.97
2023-01-31T03:41:18.409Z,99179.69
2023-01-31T03:43:54.276Z,99179.69
2023-01-31T03:46:29.791Z,99189.78
2023-01-31T03:48:58.912Z,99187.44
2023-01-31T03:51:30.142Z,99197.06
2023-01-31T03:54:01.869Z,99208.00
2023-01-31T03:56:37.985Z,99198.84
2023-01-31T03:59:12.043Z,99200.53
2023-01-31T04:01:44.083Z,99204.66
2023-01-31T04:04:16.271Z,99211.94
2023-01-31T04:06:43.291Z,99206.44
2023-01-31T04:09:09.907Z,99217.38
2023-01-31T04:11:39.803Z,99218.16
2023-01-31T04:14:07.456Z,99225.44
2023-01-31T04:16:34.005Z,99217.31
2023-01-31T04:19:00.659Z,99209.81
2023-01-31T04:21:27.180Z,99215.41
2023-01-31T04:23:53.616Z,99203.53
2023-01-31T04:26:20.113Z,99201.78
2023-01-31T04:28:46.631Z,99204.38
2023-01-31T04:31:13.269Z,99218.50
2023-01-31T04:33:39.908Z,99229.34
2023-01-31T04:36:06.998Z,99214.69
2023-01-31T04:38:33.531Z,99225.88
2023-01-31T04:41:00.023Z,99206.63
2023-01-31T04:43:26.456Z,99211.88
2023-01-31T04:45:53.045Z,99223.91
2023-01-31T04:48:19.617Z,99216.53
2023-01-31T04:50:46.237Z,99224.31
2023-01-31T04:53:12.844Z,99200.91
2023-01-31T04:55:39.408Z,99234.72
2023-01-31T04:58:07.129Z,99222.44
2023-01-31T05:00:34.425Z,99231.25
2023-01-31T05:03:02.061Z,99224.88
2023-01-31T05:05:28.571Z,99235.25
2023-01-31T05:07:57.378Z,99225.44
2023-01-31T05:10:23.808Z,99238.34
2023-01-31T05:12:50.284Z,99236.75
2023-01-31T05:15:17.290Z,99238.72
2023-01-31T05:17:43.848Z,99231.13
2023-01-31T05:20:11.063Z,99234.97
2023-01-31T05:22:37.475Z,99244.69
2023-01-31T05:25:05.061Z,99243.50
2023-01-31T05:27:31.707Z,99231.78
2023-01-31T05:29:58.319Z,99228.25
2023-01-31T05:32:24.838Z,99235.81
2023-01-31T05:34:51.303Z,99243.88
2023-01-31T05:37:17.861Z,99246.84
2023-01-31T05:39:44.337Z,99241.41
2023-01-31T05:42:10.808Z,99251.34
2023-01-31T05:44:37.257Z,99246.09
2023-01-31T05:47:04.000Z,99252.66
2023-01-31T05:49:33.342Z,99256.84
2023-01-31T05:52:01.123Z,99240.00
2023-01-31T05:54:28.528Z,99254.81
2023-01-31T05:56:55.225Z,99252.19
2023-01-31T05:59:21.675Z,99254.91
2023-01-31T06:01:48.136Z,99262.38
2023-01-31T06:04:14.683Z,99263.34
2023-01-31T06:06:41.259Z,99253.41
2023-01-31T06:09:07.762Z,99265.09
2023-01-31T06:11:34.359Z,99248.25
2023-01-31T06:14:00.975Z,99262.75
2023-01-31T06:16:28.084Z,99260.69
2023-01-31T06:18:55.706Z,99249.47
2023-01-31T06:21:22.494Z,99258.63
2023-01-31T06:23:49.082Z,99268.47
2023-01-31T06:26:15.594Z,99265.75
2023-01-31T06:28:42.113Z,99271.94
2023-01-31T06:31:09.545Z,99273.44
2023-01-31T06:33:45.992Z,99250.69
2023-01-31T06:36:15.078Z,99280.91
2023-01-31T06:38:43.196Z,99275.88
2023-01-31T06:41:09.663Z,99279.06
2023-01-31T06:43:36.174Z,99276.06
2023-01-31T06:46:02.732Z,99264.91
2023-01-31T06:48:29.310Z,99275.31
2023-01-31T06:50:56.076Z,99272.19
2023-01-31T06:53:22.651Z,99265.66
2023-01-31T06:55:49.229Z,99265.19
2023-01-31T06:58:15.715Z,99265.84
2023-01-31T07:00:42.266Z,99277.19
2023-01-31T07:03:08.759Z,99284.97
2023-01-31T07:05:35.308Z,99272.97
2023-01-31T07:08:01.833Z,99272.88
2023-01-31T07:10:28.745Z,99277.44
2023-01-31T07:12:55.203Z,99268.94
2023-01-31T07:15:21.992Z,99269.06
2023-01-31T07:17:49.082Z,99290.00
2023-01-31T07:20:15.680Z,99276.91
2023-01-31T07:22:42.170Z,99282.88
2023-01-31T07:25:08.988Z,99286.72
2023-01-31T07:27:35.898Z,99283.97
2023-01-31T07:30:02.391Z,99260.97
2023-01-31T07:32:31.044Z,99283.53
2023-01-31T07:34:58.850Z,99286.72
2023-01-31T07:37:25.360Z,99270.44
2023-01-31T07:39:51.811Z,99298.50
2023-01-31T07:42:18.335Z,99300.34
2023-01-31T07:44:44.797Z,99288.00
2023-01-31T07:47:11.297Z,99302.22
2023-01-31T07:49:37.775Z,99301.84
2023-01-31T07:52:08.553Z,99295.22
2023-01-31T07:54:35.718Z,99305.44
2023-01-31T07:57:02.249Z,99319.47
2023-01-31T07:59:28.836Z,99327.03
2023-01-31T08:02:13.876Z,99316.41
2023-01-31T08:04:40.419Z,99323.41
2023-01-31T08:07:07.091Z,99327.63
2023-01-31T08:09:33.884Z,99336.72
2023-01-31T08:12:00.391Z,99331.66
2023-01-31T08:14:28.677Z,99331.19
2023-01-31T08:16:55.903Z,99317.41
2023-01-31T08:19:22.889Z,99321.53
2023-01-31T08:21:50.147Z,99338.59
2023-01-31T08:24:16.730Z,99336.53
2023-01-31T08:26:43.697Z,99341.03
2023-01-31T08:29:10.855Z,99335.59
2023-01-31T08:31:37.470Z,99329.03
2023-01-31T08:34:03.978Z,99329.59
2023-01-31T08:36:34.061Z,99335.50
2023-01-31T08:39:00.864Z,99335.31
2023-01-31T08:41:31.981Z,99317.81
2023-01-31T08:44:04.926Z,99335.56
2023-01-31T08:46:34.157Z,99347.94
2023-01-31T08:49:02.299Z,99349.72
2023-01-31T08:51:29.200Z,99335.22
2023-01-31T08:53:55.706Z,99343.44
2023-01-31T08:56:25.371Z,99344.00
2023-01-31T08:58:53.725Z,99349.03
2023-01-31T09:01:21.290Z,99337.50
2023-01-31T09:03:48.774Z,99347.53
2023-01-31T09:06:18.679Z,99337.44
2023-01-31T09:08:45.258Z,99335.38
2023-01-31T09:11:17.322Z,99342.25
2023-01-31T09:13:44.327Z,99345.91
2023-01-31T09:16:12.230Z,99345.69
2023-01-31T09:18:39.788Z,99337.25
2023-01-31T09:21:14.874Z,99334.41
2023-01-31T09:23:42.735Z,99325.31
2023-01-31T09:26:11.323Z,99340.75
2023-01-31T09:28:37.987Z,99332.38
2023-01-31T09:31:10.463Z,99328.66
2023-01-31T09:33:38.404Z,99326.91
2023-01-31T09:36:14.011Z,99338.56
2023-01-31T09:38:41.126Z,99335.22
2023-01-31T09:41:19.308Z,99345.00
2023-01-31T09:43:53.613Z,99361.41
2023-01-31T09:46:24.429Z,99343.72
2023-01-31T09:48:54.532Z,99325.41
2023-01-31T09:51:21.469Z,99364.47
2023-01-31T09:53:48.552Z,99366.59
2023-01-31T09:56:47.342Z,99366.59
2023-01-31T09:59:30.768Z,99363.25
2023-01-31T10:02:51.383Z,99354.00
2023-01-31T10:05:33.712Z,99351.88
2023-01-31T10:08:21.924Z,99334.75
2023-01-31T10:10:52.798Z,99336.00
2023-01-31T10:13:19.358Z,99334.63
2023-01-31T10:15:53.487Z,99337.16
2023-01-31T10:18:24.887Z,99335.53
2023-01-31T10:20:59.414Z,99315.66
2023-01-31T10:23:32.741Z,99343.31
2023-01-31T10:26:08.364Z,99344.66
2023-01-31T10:28:40.229Z,99349.59
2023-01-31T10:31:34.091Z,99350.88
2023-01-31T10:34:15.184Z,99296.53
2023-01-31T10:36:53.216Z,99344.47
2023-01-31T10:39:51.287Z,99338.22
2023-01-31T10:42:38.085Z,99336.72
2023-01-31T10:45:17.830Z,99330.06
2023-01-31T10:48:18.867Z,99327.03
2023-01-31T10:51:01.595Z,99320.88
2023-01-31T10:53:36.266Z,99299.97
2023-01-31T10:56:09.961Z,99315.84
2023-01-31T10:58:37.578Z,99307.47
2023-01-31T11:01:11.738Z,99292.50
2023-01-31T11:03:38.900Z,99304.16
2023-01-31T11:06:06.688Z,99313.09
2023-01-31T11:08:33.136Z,99302.13
2023-01-31T11:11:09.213Z,99298.50
2023-01-31T11:13:36.080Z,99298.31
2023-01-31T11:16:07.602Z,99281.91
2023-01-31T11:18:51.670Z,99277.69
2023-01-31T11:21:29.054Z,99279.72
2023-01-31T11:24:15.822Z,99275.81
2023-01-31T11:26:50.724Z,99273.31
2023-01-31T11:29:35.917Z,99277.50
2023-01-31T11:32:06.373Z,99285.91
2023-01-31T11:34:33.919Z,99284.00
2023-01-31T11:37:06.921Z,99272.16
2023-01-31T11:39:37.988Z,99286.63
2023-01-31T11:42:16.741Z,99292.53
2023-01-31T11:45:19.578Z,99281.78
2023-01-31T11:47:52.660Z,99277.81
2023-01-31T11:50:21.048Z,99280.38
2023-01-31T11:52:55.079Z,99266.22
2023-01-31T11:55:21.898Z,99281.97
2023-01-31T11:58:04.144Z,99278.47
2023-01-31T12:00:33.640Z,99240.25
2023-01-31T12:03:09.693Z,99264.09
2023-01-31T12:05:50.153Z,99252.38
2023-01-31T12:08:39.768Z,99251.88
2023-01-31T12:11:21.764Z,99247.78
2023-01-31T12:13:54.595Z,99243.25
2023-01-31T12:16:25.731Z,99220.84
2023-01-31T12:19:14.471Z,99239.56
2023-01-31T12:21:44.193Z,99235.06
2023-01-31T12:24:25.405Z,99233.38
2023-01-31T12:26:59.993Z,99233.50
2023-01-31T12:29:41.661Z,99236.31
2023-01-31T12:32:43.685Z,99225.69
2023-01-31T12:35:19.805Z,99232.09
2023-01-31T12:38:07.452Z,99237.03
2023-01-31T12:40:54.177Z,99227.50
2023-01-31T12:43:44.423Z,99206.94
2023-01-31T12:46:38.787Z,99221.38
2023-01-31T12:49:23.850Z,99218.25
2023-01-31T12:52:12.293Z,99210.09
2023-01-31T12:55:08.963Z,99204.34
2023-01-31T12:58:01.614Z,99199.22
2023-01-31T13:01:07.136Z,99217.09
2023-01-31T13:04:11.173Z,99200.66
2023-01-31T13:06:42.890Z,99201.59
2023-01-31T13:09:29.755Z,99206.63
2023-01-31T13:12:30.847Z,99170.81
2023-01-31T13:15:05.143Z,99190.75
2023-01-31T13:17:38.733Z,99189.06
2023-01-31T13:20:20.333Z,99198.50
2023-01-31T13:22:52.304Z,99167.75
2023-01-31T13:25:38.985Z,99171.56
2023-01-31T13:28:15.413Z,99187.66
2023-01-31T13:30:53.513Z,99203.03
2023-01-31T13:33:36.608Z,99183.50
2023-01-31T13:36:16.869Z,99186.28
2023-01-31T13:38:45.561Z,99191.31
2023-01-31T13:41:32.810Z,99166.47
2023-01-31T13:44:02.846Z,99181.44
2023-01-31T13:46:53.771Z,99187.97
2023-01-31T13:49:32.147Z,99188.13
2023-01-31T13:52:13.895Z,99157.34
2023-01-31T13:54:46.280Z,99196.28
2023-01-31T13:57:25.079Z,99185.84
2023-01-31T13:59:55.662Z,99172.69
2023-01-31T14:02:23.095Z,99163.44
2023-01-31T14:04:49.926Z,99176.97
2023-01-31T14:07:19.650Z,99158.78
2023-01-31T14:10:11.691Z,99168.88
2023-01-31T14:12:38.697Z,99171.13
2023-01-31T14:15:47.127Z,99163.63
2023-01-31T14:18:37.911Z,99160.53
2023-01-31T14:21:28.958Z,99162.50
2023-01-31T14:24:00.561Z,99166.13
2023-01-31T14:26:47.024Z,99163.03
2023-01-31T14:29:23.139Z,99145.25
2023-01-31T14:31:51.632Z,99152.63
2023-01-31T14:34:22.939Z,99152.66
2023-01-31T14:37:01.080Z,99155.00
2023-01-31T14:40:03.590Z,99156.66
2023-01-31T14:42:38.450Z,99151.03
2023-01-31T14:45:31.575Z,99157.22
2023-01-31T14:48:12.774Z,99165.56
2023-01-31T14:51:05.709Z,99161.72
2023-01-31T14:53:38.269Z,99155.94
2023-01-31T14:56:24.362Z,99162.47
2023-01-31T14:58:51.048Z,99129.63
2023-01-31T15:01:21.406Z,99133.66
2023-01-31T15:03:59.058Z,99148.88
2023-01-31T15:06:35.378Z,99161.47
2023-01-31T15:09:24.394Z,99159.34
2023-01-31T15:11:56.124Z,99135.88
2023-01-31T15:14:35.140Z,99135.78
2023-01-31T15:17:23.673Z,99148.38
2023-01-31T15:20:07.118Z,99150.28
2023-01-31T15:22:41.329Z,99165.63
2023-01-31T15:25:33.192Z,99150.81
2023-01-31T15:28:03.373Z,99157.78
2023-01-31T15:30:35.128Z,99163.75
2023-01-31T15:33:13.052Z,99134.16
2023-01-31T15:36:05.994Z,99177.28
2023-01-31T15:38:37.793Z,99170.97
2023-01-31T15:41:13.224Z,99173.81
2023-01-31T15:43:39.719Z,99165.31
2023-01-31T15:46:18.501Z,99174.41
2023-01-31T15:48:45.018Z,99152.84
2023-01-31T15:51:16.016Z,99176.09
2023-01-31T15:53:43.396Z,99137.63
2023-01-31T15:56:23.551Z,99173.69
2023-01-31T15:58:52.915Z,99173.34
2023-01-31T16:01:19.529Z,99173.44
2023-01-31T16:03:58.160Z,99180.78
2023-01-31T16:06:35.297Z,99158.97
2023-01-31T16:09:07.258Z,99166.28
2023-01-31T16:11:35.611Z,99182.09
2023-01-31T16:14:07.789Z,99161.59
2023-01-31T16:16:36.019Z,99181.72
2023-01-31T16:19:04.548Z,99148.56
2023-01-31T16:21:40.677Z,99187.72
2023-01-31T16:24:15.043Z,99183.66
2023-01-31T16:27:06.755Z,99170.38
2023-01-31T16:29:45.042Z,99171.06
2023-01-31T16:32:14.597Z,99190.34
2023-01-31T16:34:41.698Z,99176.72
2023-01-31T16:37:12.580Z,99181.00
2023-01-31T16:39:43.150Z,99178.75
2023-01-31T16:42:31.096Z,99180.03
2023-01-31T16:44:57.905Z,99186.53
2023-01-31T16:47:39.641Z,99189.97
2023-01-31T16:50:15.391Z,99193.34
2023-01-31T16:52:43.549Z,99197.16
2023-01-31T16:55:22.042Z,99197.75
2023-01-31T16:57:48.704Z,99182.88
2023-01-31T17:00:24.512Z,99198.25
2023-01-31T17:02:53.452Z,99186.31
2023-01-31T17:05:32.016Z,99200.81
2023-01-31T17:07:59.614Z,99189.06
2023-01-31T17:10:29.336Z,99204.97
2023-01-31T17:13:06.499Z,99207.00
2023-01-31T17:15:33.509Z,99196.66
2023-01-31T17:17:59.989Z,99196.44
2023-01-31T17:20:26.497Z,99193.56
2023-01-31T17:23:02.362Z,99196.69
2023-01-31T17:25:36.537Z,99181.34
2023-01-31T17:28:06.971Z,99196.81
2023-01-31T17:30:38.615Z,99194.06
2023-01-31T17:33:13.251Z,99193.69
2023-01-31T17:35:43.057Z,99194.53
2023-01-31T17:38:09.831Z,99170.06
2023-01-31T17:40:40.156Z,99184.19
2023-01-31T17:43:06.929Z,99197.00
2023-01-31T17:45:38.075Z,99179.59
2023-01-31T17:48:09.641Z,99161.13
2023-01-31T17:50:38.631Z,99192.53
2023-01-31T17:53:08.087Z,99179.03
2023-01-31T17:55:37.974Z,99149.44
2023-01-31T17:58:13.466Z,99173.41
2023-01-31T18:00:40.580Z,99125.28
2023-01-31T18:03:15.776Z,99126.31
2023-01-31T18:05:42.546Z,99152.22
2023-01-31T18:08:09.565Z,99168.41
2023-01-31T18:10:40.222Z,99173.59
2023-01-31T18:13:08.193Z,99163.00
2023-01-31T18:15:37.501Z,99178.44
2023-01-31T18:18:08.677Z,99170.88
2023-01-31T18:20:39.337Z,99165.22
2023-01-31T18:23:06.765Z,99176.28
2023-01-31T18:25:33.397Z,99169.88
2023-01-31T18:28:00.524Z,99165.31
2023-01-31T18:30:27.198Z,99166.59
2023-01-31T18:32:53.752Z,99168.66
2023-01-31T18:35:21.463Z,99169.31
2023-01-31T18:37:49.018Z,99159.56
2023-01-31T18:40:15.775Z,99163.38
2023-01-31T18:42:42.352Z,99170.66
2023-01-31T18:45:12.310Z,99162.59
2023-01-31T18:47:38.877Z,99174.25
2023-01-31T18:50:09.612Z,99168.56
2023-01-31T18:52:43.820Z,99139.69
2023-01-31T18:55:10.874Z,99161.75
2023-01-31T18:57:38.091Z,99163.66
2023-01-31T19:00:06.399Z,99179.63
2023-01-31T19:02:32.922Z,99163.53
2023-01-31T19:04:59.414Z,99163.94
2023-01-31T19:07:25.962Z,99166.78
2023-01-31T19:09:52.408Z,99184.56
2023-01-31T19:12:18.905Z,99188.13
2023-01-31T19:14:47.912Z,99158.41
2023-01-31T19:17:15.817Z,99174.69
2023-01-31T19:19:42.307Z,99171.34
2023-01-31T19:22:11.548Z,99161.69
2023-01-31T19:24:40.841Z,99190.84
2023-01-31T19:27:20.309Z,99166.00
2023-01-31T19:29:46.796Z,99183.81
2023-01-31T19:32:16.123Z,99180.19
2023-01-31T19:34:42.733Z,99151.91
2023-01-31T19:37:12.032Z,99175.38
2023-01-31T19:39:41.410Z,99194.00
2023-01-31T19:42:10.685Z,99172.94
2023-01-31T19:44:39.336Z,99204.84
2023-01-31T19:47:05.902Z,99183.75
2023-01-31T19:49:33.232Z,99207.63
2023-01-31T19:51:59.692Z,99204.25
2023-01-31T19:54:28.002Z,99199.59
2023-01-31T19:56:55.837Z,99200.28
2023-01-31T19:59:22.451Z,99212.03
2023-01-31T20:01:49.129Z,99191.84
2023-01-31T20:04:15.705Z,99207.31
2023-01-31T20:06:42.192Z,99210.50
2023-01-31T20:09:19.813Z,99199.78
2023-01-31T20:11:46.421Z,99210.09
2023-01-31T20:14:12.971Z,99221.84
2023-01-31T20:16:42.603Z,99224.59
2023-01-31T20:19:13.776Z,99221.47
2023-01-31T20:21:40.332Z,99229.97
2023-01-31T20:24:11.305Z,99227.34
2023-01-31T20:26:41.072Z,99226.41
2023-01-31T20:29:12.319Z,99223.38
2023-01-31T20:31:42.436Z,99216.72
2023-01-31T20:34:11.789Z,99202.66
2023-01-31T20:36:42.435Z,99221.91
2023-01-31T20:39:14.341Z,99215.25
2023-01-31T20:41:40.875Z,99215.13
2023-01-31T20:44:08.382Z,99220.59
2023-01-31T20:46:34.899Z,99185.94
2023-01-31T20:49:01.333Z,99217.03
2023-01-31T20:51:28.107Z,99214.63
2023-01-31T20:53:54.598Z,99209.47
2023-01-31T20:56:21.198Z,99189.09
2023-01-31T20:58:47.739Z,99212.63
2023-01-31T21:01:14.279Z,99192.63
2023-01-31T21:03:41.108Z,99196.00
2023-01-31T21:06:10.428Z,99215.66
2023-01-31T21:08:37.162Z,99210.72
2023-01-31T21:11:09.980Z,99228.13
2023-01-31T21:13:40.873Z,99212.28
2023-01-31T21:16:10.597Z,99224.78
2023-01-31T21:18:42.841Z,99222.47
2023-01-31T21:21:13.025Z,99217.44
2023-01-31T21:23:43.737Z,99202.53
2023-01-31T21:26:11.832Z,99216.91
2023-01-31T21:28:43.520Z,99220.50
2023-01-31T21:31:18.390Z,99213.66
2023-01-31T21:33:52.347Z,99223.97
2023-01-31T21:36:22.869Z,99215.88
2023-01-31T21:38:49.675Z,99201.13
2023-01-31T21:41:35.899Z,99219.22
2023-01-31T21:44:03.574Z,99215.97
2023-01-31T21:46:30.547Z,99221.94
2023-01-31T21:48:57.342Z,99211.66
2023-01-31T21:51:25.219Z,99215.66
2023-01-31T21:53:54.624Z,99208.94
2023-01-31T21:56:24.679Z,99219.84
2023-01-31T21:58:56.528Z,99201.56
2023-01-31T22:01:26.291Z,99218.28
2023-01-31T22:03:54.338Z,99206.53
2023-01-31T22:06:25.883Z,99193.06
2023-01-31T22:08:55.643Z,99212.19
2023-01-31T22:11:22.776Z,99205.22
2023-01-31T22:13:54.163Z,99211.84
2023-01-31T22:16:22.438Z,99179.25
2023-01-31T22:18:49.439Z,99185.75
2023-01-31T22:21:22.745Z,99196.78
2023-01-31T22:23:51.850Z,99195.22
2023-01-31T22:26:24.432Z,99197.03
2023-01-31T22:28:52.002Z,99196.06
2023-01-31T22:31:18.964Z,99191.13
2023-01-31T22:33:46.075Z,99179.25
2023-01-31T22:36:17.707Z,99198.91
2023-01-31T22:38:45.657Z,99188.50
2023-01-31T22:41:19.636Z,99182.63
2023-01-31T22:43:49.253Z,99199.66
2023-01-31T22:46:19.345Z,99184.50
2023-01-31T22:48:49.653Z,99203.97
2023-01-31T22:51:22.409Z,99194.47
2023-01-31T22:53:49.767Z,99201.53
2023-01-31T22:56:20.660Z,99199.88
2023-01-31T22:58:47.907Z,99191.59
2023-01-31T23:01:17.428Z,99203.22
2023-01-31T23:03:48.535Z,99180.22
2023-01-31T23:06:18.021Z,99204.91
2023-01-31T23:08:46.196Z,99189.44
2023-01-31T23:11:16.741Z,99177.81
2023-01-31T23:13:43.738Z,99186.19
2023-01-31T23:16:17.181Z,99197.56
2023-01-31T23:18:43.768Z,99199.47
2023-01-31T23:21:19.416Z,99198.50
2023-01-31T23:23:49.443Z,99189.81
2023-01-31T23:26:20.285Z,99203.81
2023-01-31T23:28:49.856Z,99190.97
2023-01-31T23:31:19.915Z,99202.88
2023-01-31T23:33:50.194Z,99203.50
2023-01-31T23:36:18.268Z,99198.03
2023-01-31T23:38:44.783Z,99180.16
2023-01-31T23:41:11.216Z,99183.75
2023-01-31T23:43:38.078Z,99194.66
2023-01-31T23:46:04.745Z,99196.47
2023-01-31T23:48:31.263Z,99199.50
2023-01-31T23:51:03.563Z,99192.53
2023-01-31T23:53:30.617Z,99193.16
2023-01-31T23:55:57.047Z,99193.78
2023-01-31T23:58:23.527Z,99200.97
